Troitsko-Pechorsk, Russia
Current Conditions -  °F | °C
As of 1:30 AM on Thursday 27 Nov 2014 (Local Time) from UUYY Reporting Station
Overcast Overcast  
Wind Chill: 21°   Ceiling: 3600
Heat Index: 21°   Visibility: 6mi
Dew Point: 16°   Wind: 0mph
Humidity: 80%   Direction: NA
Pressure: 30.36"   Gusts: NA
Location:  62.7°N, 56.2°E
Report Text: UUYY 262230Z 00000MPS 9999 BKN036 OVC066 M06/M09 Q1028 NOSIG0119//51 RMK QFE761/1015
Loading
Personal Weather Stations






























Interactive Weather Map New forecast layout! Learn more

10-Day Weather Forecast

Advertisements
Track Severe Weather on mobile